Time;durP1;ratioP1;P1;durP2;ratioP2;P2;SDS_P1;SDS_P2;PMS_P1;PMS_P2;Temp;Humidity;BMP_temperature;BMP_pressure;BME280_temperature;BME280_humidity;BME280_pressure;Samples;Min_cycle;Max_cycle;Signal;HPM_P1;HPM_P2
2021/12/08 00:00:44;;;;;;;4.72;1.48;;;8.40;52.90;;;;;;6113803;23;20459;-55
2021/12/08 00:03:12;;;;;;;4.72;1.20;;;8.40;52.80;;;;;;6114845;23;20001;-53
2021/12/08 00:05:40;;;;;;;5.80;1.50;;;8.40;52.90;;;;;;6116051;23;20439;-56
2021/12/08 00:08:08;;;;;;;9.88;1.42;;;8.50;52.90;;;;;;6112967;23;20018;-54
2021/12/08 00:13:07;;;;;;;4.55;1.70;;;8.50;52.90;;;;;;6115650;23;20332;-56
2021/12/08 00:15:34;;;;;;;7.35;1.70;;;8.40;52.80;;;;;;6125876;23;20009;-55
2021/12/08 00:18:02;;;;;;;9.23;1.50;;;8.50;52.90;;;;;;6116010;23;20009;-54
2021/12/08 00:20:31;;;;;;;3.60;1.40;;;8.50;52.80;;;;;;6116444;23;20017;-52
2021/12/08 00:22:58;;;;;;;7.25;1.55;;;8.50;52.90;;;;;;6112979;23;20300;-56
2021/12/08 00:25:25;;;;;;;8.18;1.50;;;8.50;53.00;;;;;;6113466;23;20005;-54
2021/12/08 00:27:51;;;;;;;7.53;1.75;;;8.50;53.00;;;;;;6116067;23;19998;-55
2021/12/08 00:30:18;;;;;;;6.10;1.70;;;8.50;53.10;;;;;;6116034;23;20002;-55
2021/12/08 00:32:46;;;;;;;4.88;1.70;;;8.50;53.20;;;;;;6115960;23;20454;-55
2021/12/08 00:35:13;;;;;;;6.03;1.80;;;8.50;53.30;;;;;;6115823;23;20006;-57
2021/12/08 00:37:40;;;;;;;7.50;1.80;;;8.50;53.50;;;;;;6112463;23;20009;-55
2021/12/08 00:40:09;;;;;;;4.03;1.77;;;8.50;53.60;;;;;;6114967;23;20424;-57
2021/12/08 00:42:36;;;;;;;6.20;1.75;;;8.50;53.70;;;;;;6114734;23;20006;-53
2021/12/08 00:45:09;;;;;;;5.50;1.65;;;8.50;53.80;;;;;;6115366;23;20006;-56
2021/12/08 00:47:35;;;;;;;4.43;1.88;;;8.50;53.90;;;;;;6116133;23;19998;-55
2021/12/08 00:50:03;;;;;;;9.30;1.80;;;8.50;54.10;;;;;;6117246;23;20009;-54
2021/12/08 00:52:31;;;;;;;7.00;1.77;;;8.50;54.30;;;;;;6086722;23;20017;-54
2021/12/08 00:54:58;;;;;;;3.17;1.35;;;8.50;54.40;;;;;;6113549;23;20375;-54
2021/12/08 00:57:25;;;;;;;8.25;1.90;;;8.50;54.60;;;;;;6116124;23;20009;-55
2021/12/08 00:59:51;;;;;;;7.18;1.60;;;8.50;54.60;;;;;;6116405;23;19998;-53
2021/12/08 01:02:17;;;;;;;6.43;2.13;;;8.50;54.70;;;;;;6114754;23;19998;-53
2021/12/08 01:04:44;;;;;;;4.80;1.60;;;8.50;54.80;;;;;;6115953;23;20009;-54
2021/12/08 01:07:11;;;;;;;4.57;1.85;;;8.40;54.90;;;;;;6113854;23;20013;-54
2021/12/08 01:09:37;;;;;;;7.53;1.83;;;8.40;55.10;;;;;;6113864;23;20006;-54
2021/12/08 01:12:05;;;;;;;6.85;2.00;;;8.40;55.10;;;;;;6114329;23;20005;-54
2021/12/08 01:14:33;;;;;;;4.40;1.90;;;8.40;55.20;;;;;;6115002;23;20427;-50
2021/12/08 01:17:01;;;;;;;6.80;2.03;;;8.40;55.40;;;;;;6115097;23;20006;-54
2021/12/08 01:19:27;;;;;;;5.63;1.50;;;8.40;55.50;;;;;;6115496;23;20010;-55
2021/12/08 01:21:54;;;;;;;5.68;2.15;;;8.40;55.50;;;;;;6113117;23;19998;-56
2021/12/08 01:24:20;;;;;;;5.13;1.75;;;8.40;55.60;;;;;;6135320;23;20021;-56
2021/12/08 01:26:48;;;;;;;7.28;2.00;;;8.30;55.60;;;;;;6115468;23;20002;-54
2021/12/08 01:29:14;;;;;;;4.50;1.85;;;8.30;55.70;;;;;;6116207;23;19998;-55
2021/12/08 01:31:43;;;;;;;7.00;2.35;;;8.30;55.80;;;;;;6114376;23;20025;-53
2021/12/08 01:34:10;;;;;;;5.13;1.98;;;8.30;55.90;;;;;;6112673;23;20005;-53
2021/12/08 01:36:38;;;;;;;6.05;2.05;;;8.30;56.00;;;;;;6111811;23;20010;-57
2021/12/08 01:39:06;;;;;;;4.53;1.70;;;8.30;56.10;;;;;;6116466;23;20027;-53
2021/12/08 01:41:34;;;;;;;5.35;1.55;;;8.30;56.10;;;;;;6113984;23;20063;-54
2021/12/08 01:46:46;;;;;;;3.53;1.52;;;8.20;56.20;;;;;;6124230;23;20002;-54
2021/12/08 01:49:13;;;;;;;4.43;1.60;;;8.20;56.20;;;;;;6116367;23;20002;-54
2021/12/08 01:51:40;;;;;;;7.72;1.88;;;8.20;56.30;;;;;;6114098;23;20017;-54
2021/12/08 01:54:06;;;;;;;3.83;2.00;;;8.20;56.40;;;;;;6114353;23;20013;-56
2021/12/08 01:56:34;;;;;;;4.55;1.45;;;8.20;56.60;;;;;;6113431;23;20002;-56
2021/12/08 01:59:03;;;;;;;2.30;1.35;;;8.20;56.70;;;;;;6115571;23;20006;-54
2021/12/08 02:01:32;;;;;;;4.03;1.67;;;8.20;56.80;;;;;;6113603;23;20006;-54
2021/12/08 02:04:03;;;;;;;5.35;1.48;;;8.20;56.90;;;;;;6114144;23;20012;-55
2021/12/08 02:06:36;;;;;;;3.38;1.30;;;8.20;57.00;;;;;;6120864;23;20435;-57
2021/12/08 02:09:06;;;;;;;3.72;1.33;;;8.20;57.00;;;;;;6114448;23;20371;-57
2021/12/08 02:11:32;;;;;;;4.05;1.40;;;8.20;57.10;;;;;;6115003;23;20022;-53
2021/12/08 02:14:01;;;;;;;3.60;1.38;;;8.20;57.10;;;;;;6114852;23;20012;-54
2021/12/08 02:16:29;;;;;;;5.15;1.45;;;8.20;57.20;;;;;;6114394;23;20006;-53
2021/12/08 02:18:56;;;;;;;5.30;1.75;;;8.20;57.20;;;;;;6115481;23;20001;-54
2021/12/08 02:21:35;;;;;;;4.72;1.50;;;8.20;57.20;;;;;;6113379;23;20013;-53
2021/12/08 02:24:05;;;;;;;9.50;1.60;;;8.30;57.40;;;;;;6113677;23;20300;-54
2021/12/08 02:26:33;;;;;;;2.45;1.30;;;8.20;57.30;;;;;;6115470;23;20025;-53
2021/12/08 02:29:03;;;;;;;2.58;1.33;;;8.30;57.50;;;;;;6112856;23;20009;-53
2021/12/08 02:32:33;;;;;;;6.63;1.58;;;8.30;57.50;;;;;;6123252;23;20017;-54
2021/12/08 02:48:04;;;;;;;2.45;1.40;;;8.40;57.50;;;;;;6124250;23;20335;-54
2021/12/08 02:50:35;;;;;;;4.38;2.00;;;8.30;57.60;;;;;;6114448;23;20013;-55
2021/12/08 02:53:05;;;;;;;4.80;1.77;;;8.30;57.70;;;;;;6121326;23;20006;-54
2021/12/08 02:55:32;;;;;;;2.40;1.30;;;8.30;57.80;;;;;;6114559;23;20012;-53
2021/12/08 02:58:03;;;;;;;7.32;1.92;;;8.30;57.80;;;;;;6116025;23;19998;-54
2021/12/08 03:00:33;;;;;;;2.88;1.30;;;8.40;57.90;;;;;;6122856;23;20006;-51
2021/12/08 03:03:02;;;;;;;1.60;1.35;;;8.30;57.90;;;;;;6113733;23;20025;-57
2021/12/08 03:05:29;;;;;;;5.00;1.88;;;8.30;57.90;;;;;;6115282;23;20005;-54
2021/12/08 03:07:57;;;;;;;4.95;2.00;;;8.40;58.00;;;;;;6113417;23;20010;-55
2021/12/08 03:10:26;;;;;;;5.80;1.70;;;8.40;58.00;;;;;;6115704;23;20013;-54
2021/12/08 03:12:53;;;;;;;4.72;1.52;;;8.40;58.00;;;;;;6113081;23;20006;-53
2021/12/08 03:15:19;;;;;;;3.63;1.77;;;8.40;58.00;;;;;;6114153;23;20316;-53
2021/12/08 03:17:47;;;;;;;3.83;1.80;;;8.40;58.00;;;;;;6115008;23;20002;-57
2021/12/08 03:20:16;;;;;;;6.65;2.00;;;8.30;58.00;;;;;;6112981;23;20025;-56
2021/12/08 03:22:47;;;;;;;3.42;1.58;;;8.30;58.10;;;;;;6112858;23;20423;-57
2021/12/08 03:25:17;;;;;;;7.05;1.95;;;8.30;58.00;;;;;;6114513;23;20450;-55
2021/12/08 03:28:03;;;;;;;7.82;1.83;;;8.30;58.10;;;;;;6115544;23;19998;-57
2021/12/08 03:30:36;;;;;;;5.45;1.55;;;8.30;58.10;;;;;;6114101;23;20312;-54
2021/12/08 03:33:03;;;;;;;5.00;2.43;;;8.30;58.20;;;;;;6123462;23;20005;-52
2021/12/08 03:35:29;;;;;;;3.08;1.70;;;8.30;58.20;;;;;;6114319;23;20017;-54
2021/12/08 03:37:56;;;;;;;3.67;1.83;;;8.30;58.20;;;;;;6113324;23;20304;-54
2021/12/08 03:40:25;;;;;;;4.03;1.67;;;8.30;58.30;;;;;;6116385;23;20017;-53
2021/12/08 03:42:54;;;;;;;4.40;1.80;;;8.30;58.40;;;;;;6117590;23;19998;-53
2021/12/08 03:45:34;;;;;;;3.03;1.85;;;8.30;58.30;;;;;;6115865;23;20005;-57
2021/12/08 03:48:07;;;;;;;2.70;1.60;;;8.30;58.30;;;;;;6114383;23;20002;-53
2021/12/08 03:50:37;;;;;;;5.07;1.67;;;8.30;58.30;;;;;;6125631;23;20308;-53
2021/12/08 03:53:08;;;;;;;3.80;1.60;;;8.30;58.40;;;;;;6114166;23;20002;-53
2021/12/08 03:55:34;;;;;;;4.03;1.60;;;8.30;58.40;;;;;;6115157;23;20032;-54
2021/12/08 03:58:01;;;;;;;4.13;1.45;;;8.30;58.40;;;;;;6114694;23;20021;-56
2021/12/08 04:00:32;;;;;;;4.78;2.03;;;8.30;58.50;;;;;;6116579;23;20335;-56
2021/12/08 04:03:02;;;;;;;3.13;1.55;;;8.30;58.50;;;;;;6124170;23;20009;-55
2021/12/08 04:05:41;;;;;;;5.20;1.80;;;8.30;58.50;;;;;;6116542;23;19998;-54
2021/12/08 04:08:15;;;;;;;2.95;1.80;;;8.30;58.50;;;;;;6115194;23;20014;-57
2021/12/08 04:10:44;;;;;;;2.30;1.38;;;8.30;58.60;;;;;;6116698;23;20249;-53
2021/12/08 04:13:11;;;;;;;4.28;1.70;;;8.30;58.60;;;;;;6114915;23;20002;-57
2021/12/08 04:15:37;;;;;;;2.70;1.60;;;8.30;58.60;;;;;;6115077;23;20331;-56
2021/12/08 04:18:05;;;;;;;4.63;1.65;;;8.30;58.70;;;;;;6116165;23;20006;-55
2021/12/08 04:20:43;;;;;;;5.90;1.67;;;8.30;58.70;;;;;;6116317;23;20443;-50
2021/12/08 04:23:14;;;;;;;4.90;1.70;;;8.30;58.80;;;;;;6124219;23;20002;-55
2021/12/08 04:25:44;;;;;;;5.82;1.92;;;8.30;58.90;;;;;;6115989;23;20006;-57
2021/12/08 04:28:15;;;;;;;3.40;1.48;;;8.40;59.00;;;;;;6116549;23;20010;-55
2021/12/08 04:30:46;;;;;;;3.08;1.45;;;8.30;59.00;;;;;;6125423;23;20438;-56
2021/12/08 04:33:14;;;;;;;5.38;1.60;;;8.40;59.20;;;;;;6112707;23;20338;-54
2021/12/08 04:35:41;;;;;;;5.55;1.48;;;8.40;59.20;;;;;;6116721;23;20006;-55
2021/12/08 04:38:13;;;;;;;2.75;1.48;;;8.40;59.20;;;;;;6113250;23;20214;-55
2021/12/08 04:43:58;;;;;;;5.35;1.67;;;8.40;59.20;;;;;;6129112;23;20006;-56
2021/12/08 04:47:19;;;;;;;4.18;1.77;;;8.40;59.20;;;;;;6114742;23;20811;-57
2021/12/08 04:50:18;;;;;;;6.63;1.90;;;8.50;59.40;;;;;;6115576;23;20200;-54
2021/12/08 04:52:58;;;;;;;4.82;1.83;;;8.50;59.20;;;;;;6111295;23;20006;-56
2021/12/08 05:08:52;;;;;;;9.48;3.78;;;8.50;59.20;;;;;;6114624;23;20477;-54
2021/12/08 05:11:21;;;;;;;8.45;2.95;;;8.50;59.30;;;;;;6124457;23;20014;-53
2021/12/08 05:13:52;;;;;;;5.15;2.28;;;8.60;59.40;;;;;;6110675;23;20006;-57
2021/12/08 05:16:21;;;;;;;7.85;2.00;;;8.50;59.50;;;;;;6121494;23;20006;-55
2021/12/08 05:18:50;;;;;;;3.90;1.52;;;8.50;59.50;;;;;;6114007;23;20012;-57
2021/12/08 05:21:38;;;;;;;11.75;2.17;;;8.60;59.60;;;;;;6111009;23;20002;-51
2021/12/08 05:24:15;;;;;;;7.80;2.10;;;8.60;59.80;;;;;;6114014;23;20220;-56
2021/12/08 05:26:52;;;;;;;8.05;2.38;;;8.60;59.70;;;;;;6125107;23;20024;-54
2021/12/08 05:29:32;;;;;;;7.15;2.33;;;8.60;59.70;;;;;;6124775;23;20331;-54
2021/12/08 05:32:01;;;;;;;5.45;2.20;;;8.60;59.70;;;;;;6124379;23;20078;-56
2021/12/08 05:34:27;;;;;;;4.28;1.80;;;8.50;59.50;;;;;;6111567;23;20316;-57
2021/12/08 05:36:54;;;;;;;5.13;2.08;;;8.60;59.50;;;;;;6111926;23;20002;-54
2021/12/08 05:39:24;;;;;;;6.22;2.47;;;8.60;59.50;;;;;;6111408;23;20021;-53
2021/12/08 05:41:55;;;;;;;5.10;2.28;;;8.50;59.50;;;;;;6114409;23;20009;-54
2021/12/08 05:44:22;;;;;;;6.47;2.35;;;8.50;59.50;;;;;;6112845;23;20021;-56
2021/12/08 05:46:52;;;;;;;22.98;9.43;;;8.50;59.40;;;;;;6113639;23;20427;-55
2021/12/08 05:49:19;;;;;;;46.75;16.70;;;8.40;59.40;;;;;;6116270;23;20009;-53
2021/12/08 05:51:48;;;;;;;15.93;5.65;;;8.40;59.40;;;;;;6113871;23;20001;-56
2021/12/08 05:54:22;;;;;;;9.90;4.03;;;8.40;59.40;;;;;;6113124;23;19998;-54
2021/12/08 05:56:49;;;;;;;;;;;8.40;59.40;;;;;;6115643;23;20025;-53
2021/12/08 05:59:16;;;;;;;14.98;5.60;;;8.40;59.40;;;;;;6116117;23;20142;-55
2021/12/08 06:01:48;;;;;;;15.85;3.28;;;8.40;59.20;;;;;;6113419;23;20510;-54
2021/12/08 06:04:15;;;;;;;6.47;2.95;;;8.40;59.30;;;;;;6110941;23;20323;-56
2021/12/08 06:06:42;;;;;;;7.85;2.45;;;8.30;59.30;;;;;;6112054;23;19998;-57
2021/12/08 06:09:11;;;;;;;6.63;2.55;;;8.30;59.40;;;;;;6116311;23;20017;-54
2021/12/08 06:11:38;;;;;;;7.50;2.83;;;8.30;59.50;;;;;;6116023;23;20014;-57
2021/12/08 06:14:07;;;;;;;5.28;2.40;;;8.30;59.60;;;;;;6115252;23;20002;-53
2021/12/08 06:16:36;;;;;;;6.03;2.30;;;8.20;59.50;;;;;;6114419;23;20010;-54
2021/12/08 06:19:04;;;;;;;8.50;2.85;;;8.20;59.50;;;;;;6112481;23;20010;-54
2021/12/08 06:21:31;;;;;;;5.82;2.47;;;8.20;59.50;;;;;;6111600;23;20006;-54
2021/12/08 06:23:58;;;;;;;5.20;2.20;;;8.20;59.50;;;;;;6115465;23;19998;-55
2021/12/08 06:26:26;;;;;;;7.35;2.63;;;8.20;59.50;;;;;;6114984;23;20006;-57
2021/12/08 06:28:54;;;;;;;5.65;2.50;;;8.20;59.50;;;;;;6133571;23;20006;-53
2021/12/08 06:31:22;;;;;;;8.35;2.88;;;8.20;59.60;;;;;;6113072;23;20184;-55
2021/12/08 06:33:48;;;;;;;5.15;2.50;;;8.10;59.60;;;;;;6111646;23;20010;-54
2021/12/08 06:36:23;;;;;;;6.13;2.47;;;8.10;59.70;;;;;;6114083;23;20002;-56
2021/12/08 06:38:50;;;;;;;6.72;2.53;;;8.10;59.80;;;;;;6124626;23;20002;-56
2021/12/08 06:41:22;;;;;;;7.57;2.47;;;8.10;59.90;;;;;;6114910;23;20331;-57
2021/12/08 06:43:56;;;;;;;7.22;2.90;;;8.10;59.90;;;;;;6123153;23;20001;-55
2021/12/08 06:46:23;;;;;;;7.97;2.88;;;8.10;60.00;;;;;;6119219;23;20462;-56
2021/12/08 06:48:55;;;;;;;5.95;2.42;;;8.00;60.00;;;;;;6122313;23;20002;-57
2021/12/08 06:51:28;;;;;;;9.43;2.97;;;8.00;60.10;;;;;;6121590;23;20561;-53
2021/12/08 06:54:00;;;;;;;6.05;2.60;;;8.00;60.10;;;;;;6119952;23;20490;-54
2021/12/08 06:56:40;;;;;;;5.35;1.98;;;8.00;60.30;;;;;;6122367;23;19994;-54
2021/12/08 06:59:17;;;;;;;7.03;2.20;;;8.00;60.40;;;;;;6111739;23;20023;-54
2021/12/08 07:02:10;;;;;;;9.50;2.58;;;8.00;60.40;;;;;;6120606;23;20013;-57
2021/12/08 07:05:10;;;;;;;7.40;2.60;;;8.00;60.40;;;;;;6110976;23;20335;-56
2021/12/08 07:07:38;;;;;;;6.07;2.38;;;8.00;60.50;;;;;;6112508;23;20348;-57
2021/12/08 07:10:14;;;;;;;12.32;2.90;;;8.00;60.40;;;;;;6115021;23;20009;-53
2021/12/08 07:12:44;;;;;;;10.02;2.55;;;8.00;60.60;;;;;;6123369;23;20021;-53
2021/12/08 07:15:28;;;;;;;5.63;2.40;;;8.00;60.60;;;;;;6113187;23;20321;-54
2021/12/08 07:17:58;;;;;;;7.32;2.33;;;8.00;60.70;;;;;;6113489;23;19998;-57
2021/12/08 07:20:45;;;;;;;5.57;2.30;;;8.00;60.70;;;;;;6114151;23;20006;-55
2021/12/08 07:23:36;;;;;;;8.30;2.33;;;8.00;60.70;;;;;;6113275;23;20021;-50
2021/12/08 07:26:07;;;;;;;4.95;2.22;;;8.00;60.80;;;;;;6123796;23;20002;-53
2021/12/08 07:28:37;;;;;;;16.58;5.95;;;8.00;60.70;;;;;;6126083;23;20454;-54
2021/12/08 07:31:20;;;;;;;10.45;4.03;;;7.90;60.60;;;;;;6115724;23;20002;-54
2021/12/08 07:33:48;;;;;;;6.72;2.35;;;7.90;60.80;;;;;;6124448;23;20002;-54
2021/12/08 07:36:17;;;;;;;5.95;2.30;;;7.90;60.70;;;;;;6112515;23;20013;-55
2021/12/08 07:38:51;;;;;;;4.85;2.15;;;7.90;60.80;;;;;;6114261;23;20017;-55
2021/12/08 07:41:30;;;;;;;7.32;2.15;;;7.90;60.90;;;;;;6126194;23;20002;-54
2021/12/08 07:43:59;;;;;;;7.43;2.22;;;7.90;60.90;;;;;;6111792;23;20451;-55
2021/12/08 07:46:48;;;;;;;8.35;2.40;;;7.90;60.90;;;;;;6113717;23;20005;-52
2021/12/08 07:49:43;;;;;;;4.25;1.95;;;8.00;61.20;;;;;;6126569;23;20005;-55
2021/12/08 07:52:12;;;;;;;9.13;1.73;;;7.90;61.10;;;;;;6113049;23;20184;-54
2021/12/08 07:54:39;;;;;;;7.10;2.70;;;8.00;61.00;;;;;;6112756;23;20038;-57
2021/12/08 07:57:09;;;;;;;4.70;2.13;;;7.90;61.10;;;;;;6112879;23;20002;-55
2021/12/08 07:59:39;;;;;;;9.50;2.13;;;8.00;61.20;;;;;;6117266;23;20006;-53
2021/12/08 08:02:07;;;;;;;8.65;2.13;;;8.00;61.30;;;;;;6112740;23;20014;-54
2021/12/08 08:04:37;;;;;;;6.93;2.13;;;8.00;61.30;;;;;;6115589;23;20297;-57
2021/12/08 08:07:05;;;;;;;5.03;1.95;;;8.00;61.30;;;;;;6112718;23;20462;-53
2021/12/08 08:09:36;;;;;;;11.20;2.40;;;8.00;61.40;;;;;;6111249;23;20021;-50
2021/12/08 08:12:05;;;;;;;6.35;2.00;;;8.00;61.40;;;;;;6115280;23;20024;-54
2021/12/08 08:14:39;;;;;;;6.35;1.67;;;8.00;61.40;;;;;;6115069;23;20006;-52
2021/12/08 08:17:11;;;;;;;9.27;1.83;;;8.00;61.40;;;;;;6123942;23;20009;-56
2021/12/08 08:19:44;;;;;;;13.20;2.28;;;8.00;61.30;;;;;;6112465;23;20009;-54
2021/12/08 08:22:24;;;;;;;10.48;2.45;;;8.10;61.40;;;;;;6112825;23;20336;-53
2021/12/08 08:24:52;;;;;;;6.18;1.92;;;8.10;61.40;;;;;;6091017;23;20006;-56
2021/12/08 08:27:19;;;;;;;5.63;2.10;;;8.10;61.30;;;;;;6114718;23;19998;-54
2021/12/08 08:29:45;;;;;;;7.35;2.40;;;8.10;61.30;;;;;;6115711;23;20002;-54
2021/12/08 08:32:20;;;;;;;13.90;2.28;;;8.10;61.30;;;;;;6114142;23;19998;-54
2021/12/08 08:34:49;;;;;;;9.77;2.00;;;8.10;61.30;;;;;;6114643;23;20006;-53
2021/12/08 08:37:17;;;;;;;10.15;1.85;;;8.10;61.40;;;;;;6112491;23;20010;-54
2021/12/08 08:39:50;;;;;;;10.13;1.75;;;8.20;61.40;;;;;;6115583;23;20367;-53
2021/12/08 08:42:24;;;;;;;9.65;1.73;;;8.20;61.50;;;;;;6125417;23;20377;-53
2021/12/08 08:45:06;;;;;;;7.60;1.83;;;8.20;61.40;;;;;;6124713;23;19998;-56
2021/12/08 08:47:51;;;;;;;7.35;2.10;;;8.20;61.40;;;;;;6087256;23;20013;-57
2021/12/08 08:50:30;;;;;;;8.35;2.08;;;8.30;61.40;;;;;;6124929;23;20033;-54
2021/12/08 08:52:57;;;;;;;6.35;2.20;;;8.30;61.30;;;;;;6110429;23;20522;-55
2021/12/08 08:55:32;;;;;;;10.85;2.35;;;8.30;61.20;;;;;;6113758;23;20060;-52
2021/12/08 08:58:02;;;;;;;7.90;1.90;;;8.30;61.40;;;;;;6124246;23;20013;-55
2021/12/08 09:00:46;;;;;;;10.27;2.63;;;8.30;61.20;;;;;;6115187;23;20002;-53
2021/12/08 09:03:18;;;;;;;10.38;1.67;;;8.40;61.10;;;;;;6124925;23;20014;-54
2021/12/08 09:05:51;;;;;;;7.53;1.88;;;8.40;61.00;;;;;;6123996;23;20002;-52
2021/12/08 09:08:20;;;;;;;10.30;1.87;;;8.40;61.00;;;;;;6115505;23;20017;-53
2021/12/08 09:10:53;;;;;;;8.82;1.80;;;8.40;60.90;;;;;;6114662;23;20490;-55
2021/12/08 09:13:29;;;;;;;7.15;1.60;;;8.50;61.00;;;;;;6123033;23;20001;-55
2021/12/08 09:16:00;;;;;;;11.70;2.00;;;8.50;60.90;;;;;;6114764;23;20009;-56
2021/12/08 09:18:41;;;;;;;12.25;2.63;;;8.50;60.90;;;;;;6124672;23;20005;-54
2021/12/08 09:21:20;;;;;;;9.00;1.88;;;8.50;61.00;;;;;;6122865;23;19998;-57
2021/12/08 09:24:07;;;;;;;4.57;1.40;;;8.60;61.10;;;;;;6121658;23;20021;-53
2021/12/08 09:26:36;;;;;;;7.80;1.55;;;8.60;61.10;;;;;;6115777;23;19994;-53
2021/12/08 09:29:16;;;;;;;12.63;2.13;;;8.60;60.90;;;;;;6113025;23;20006;-57
2021/12/08 09:31:54;;;;;;;7.85;1.63;;;8.60;61.00;;;;;;6122295;23;20005;-54
2021/12/08 09:34:32;;;;;;;6.10;1.65;;;8.60;61.00;;;;;;6115634;23;20014;-53
2021/12/08 09:37:03;;;;;;;7.28;1.48;;;8.70;60.90;;;;;;6111701;23;20434;-53
2021/12/08 09:39:39;;;;;;;10.05;1.75;;;8.70;60.90;;;;;;6111429;23;20017;-54
2021/12/08 09:42:23;;;;;;;10.88;1.85;;;8.70;60.80;;;;;;6122735;23;20009;-55
2021/12/08 09:45:01;;;;;;;10.57;2.00;;;8.80;60.80;;;;;;6121547;23;19998;-52
2021/12/08 09:47:29;;;;;;;11.68;1.80;;;8.80;60.60;;;;;;6114795;23;20063;-53
2021/12/08 09:50:00;;;;;;;10.43;1.63;;;8.80;60.50;;;;;;6115186;23;20006;-57
2021/12/08 09:52:28;;;;;;;11.38;2.15;;;8.90;60.50;;;;;;6121853;23;20002;-55
2021/12/08 09:54:56;;;;;;;5.28;1.58;;;8.90;60.40;;;;;;6113373;23;20009;-56
2021/12/08 09:57:23;;;;;;;6.47;1.75;;;8.90;60.30;;;;;;6112418;23;20032;-53
2021/12/08 09:59:49;;;;;;;12.00;2.13;;;8.90;60.10;;;;;;6113064;23;20009;-57
2021/12/08 10:02:26;;;;;;;9.40;1.92;;;8.90;60.00;;;;;;6113964;23;20002;-53
2021/12/08 10:04:55;;;;;;;5.35;1.50;;;9.00;59.90;;;;;;6108942;23;20002;-56
2021/12/08 10:07:22;;;;;;;7.22;1.75;;;9.00;59.90;;;;;;6113138;23;20014;-54
2021/12/08 10:09:49;;;;;;;8.68;1.50;;;9.10;59.90;;;;;;6113328;23;20029;-54
2021/12/08 10:12:16;;;;;;;14.35;3.45;;;9.10;59.90;;;;;;6113012;23;20265;-49
2021/12/08 10:14:46;;;;;;;6.78;2.17;;;9.10;59.70;;;;;;6112273;23;20010;-56
2021/12/08 10:17:14;;;;;;;9.00;1.70;;;9.10;59.60;;;;;;6113539;23;20372;-53
2021/12/08 10:19:43;;;;;;;3.97;1.52;;;9.10;59.50;;;;;;6114447;23;20331;-54
2021/12/08 10:22:21;;;;;;;12.02;2.30;;;9.10;59.30;;;;;;6112352;23;20005;-54
2021/12/08 10:25:07;;;;;;;12.25;2.08;;;9.20;59.10;;;;;;6113327;23;20005;-55
2021/12/08 10:28:06;;;;;;;6.05;1.38;;;9.20;59.00;;;;;;6115041;23;20006;-55
2021/12/08 10:30:57;;;;;;;10.07;2.08;;;9.20;58.90;;;;;;6112830;23;20057;-54
2021/12/08 10:33:59;;;;;;;7.55;1.52;;;9.20;58.70;;;;;;6108548;23;20347;-55
2021/12/08 10:37:04;;;;;;;6.25;1.58;;;9.30;58.60;;;;;;6122811;23;20013;-53
2021/12/08 10:39:35;;;;;;;8.13;1.90;;;9.30;58.40;;;;;;6083368;23;20013;-56
2021/12/08 10:42:09;;;;;;;8.10;1.73;;;9.30;58.20;;;;;;6112999;23;20010;-55
2021/12/08 10:44:50;;;;;;;13.35;1.92;;;9.30;58.10;;;;;;6113158;23;19998;-55
2021/12/08 10:47:24;;;;;;;10.55;1.65;;;9.40;58.10;;;;;;6114213;23;20331;-54
2021/12/08 10:54:25;;;;;;;15.55;2.15;;;9.40;57.90;;;;;;6122585;23;19994;-52
2021/12/08 10:55:39;;;;;;;9.68;2.17;;;9.40;57.70;;;;;;6121361;23;20006;-56
2021/12/08 10:58:06;;;;;;;7.60;1.98;;;9.40;57.60;;;;;;6111254;23;20005;-53
2021/12/08 11:00:39;;;;;;;6.97;1.63;;;9.50;57.50;;;;;;6114403;23;20006;-51
2021/12/08 11:03:12;;;;;;;9.57;2.25;;;9.50;57.40;;;;;;6124104;23;20315;-52
2021/12/08 11:05:48;;;;;;;8.15;1.90;;;9.50;57.40;;;;;;6123030;23;20006;-52
2021/12/08 11:08:16;;;;;;;6.55;1.50;;;9.50;57.30;;;;;;6113716;23;20014;-56
2021/12/08 11:10:56;;;;;;;6.55;1.38;;;9.60;57.30;;;;;;6114971;23;20335;-52
2021/12/08 11:13:26;;;;;;;4.80;1.42;;;9.60;57.10;;;;;;6123113;23;20006;-52
2021/12/08 11:16:10;;;;;;;11.50;2.03;;;9.60;57.10;;;;;;6114934;23;20010;-54
2021/12/08 11:18:39;;;;;;;6.70;1.40;;;9.60;56.90;;;;;;6114543;23;20016;-54
2021/12/08 11:21:20;;;;;;;7.43;1.60;;;9.70;57.20;;;;;;6115159;23;20010;-52
2021/12/08 11:23:49;;;;;;;9.27;1.92;;;9.70;57.00;;;;;;6111463;23;20021;-53
2021/12/08 11:26:25;;;;;;;8.52;2.10;;;9.80;57.00;;;;;;6114823;23;19998;-55
2021/12/08 11:29:04;;;;;;;8.27;1.77;;;9.80;56.80;;;;;;6111339;23;20002;-55
2021/12/08 11:31:45;;;;;;;9.73;2.10;;;9.80;56.70;;;;;;6122863;23;20415;-56
2021/12/08 11:34:19;;;;;;;6.82;1.48;;;9.80;56.60;;;;;;6124381;23;20442;-51
2021/12/08 11:36:49;;;;;;;6.60;1.52;;;9.90;56.60;;;;;;6123437;23;20017;-54
2021/12/08 11:39:23;;;;;;;16.45;2.85;;;9.90;56.60;;;;;;6115771;23;20322;-53
2021/12/08 11:41:53;;;;;;;10.68;1.63;;;9.90;56.50;;;;;;6123745;23;20458;-54
2021/12/08 11:44:23;;;;;;;12.35;1.77;;;10.00;56.50;;;;;;6113640;23;20323;-54
2021/12/08 11:46:52;;;;;;;10.10;1.50;;;10.00;56.40;;;;;;6114848;23;20006;-57
2021/12/08 11:49:19;;;;;;;12.95;2.08;;;10.00;56.20;;;;;;6115082;23;20423;-54
2021/12/08 11:51:45;;;;;;;15.00;2.25;;;10.00;56.20;;;;;;6113049;23;20427;-55
2021/12/08 11:54:56;;;;;;;14.15;2.53;;;10.10;56.20;;;;;;6114295;23;19998;-57
2021/12/08 11:57:24;;;;;;;8.85;1.63;;;10.10;55.90;;;;;;6061609;23;20498;-53
2021/12/08 12:00:00;;;;;;;12.98;2.42;;;10.10;56.10;;;;;;6054566;23;20010;-52
2021/12/08 12:02:34;;;;;;;10.00;1.85;;;10.10;56.00;;;;;;6078661;23;20006;-56
2021/12/08 12:05:04;;;;;;;10.00;1.58;;;10.10;56.00;;;;;;6125402;23;19994;-55
2021/12/08 12:07:30;;;;;;;11.73;1.90;;;10.20;56.10;;;;;;6111694;23;20021;-54
2021/12/08 12:09:57;;;;;;;7.40;1.85;;;10.20;56.10;;;;;;6116658;23;20013;-54
2021/12/08 12:12:23;;;;;;;13.13;1.80;;;10.20;56.20;;;;;;6115903;23;20010;-53
2021/12/08 12:14:49;;;;;;;12.88;2.15;;;10.20;56.20;;;;;;6112709;23;20009;-54
2021/12/08 12:17:16;;;;;;;10.23;1.95;;;10.20;56.20;;;;;;6115648;23;20002;-55
2021/12/08 12:19:54;;;;;;;13.00;1.95;;;10.20;56.20;;;;;;6115379;23;20009;-53
2021/12/08 12:22:28;;;;;;;8.30;1.77;;;10.30;56.20;;;;;;6124430;23;20006;-51
2021/12/08 12:25:24;;;;;;;12.98;2.53;;;10.30;56.20;;;;;;6113196;23;20021;-54
2021/12/08 12:28:28;;;;;;;9.70;2.55;;;10.30;56.20;;;;;;6125799;23;19998;-55
2021/12/08 12:31:25;;;;;;;10.43;2.22;;;10.30;56.20;;;;;;6085723;23;20002;-53
2021/12/08 12:33:52;;;;;;;14.85;2.63;;;10.40;56.40;;;;;;6122718;23;20016;-51
2021/12/08 12:36:28;;;;;;;8.57;1.90;;;10.40;56.30;;;;;;6114974;23;20013;-54
2021/12/08 12:39:19;;;;;;;8.93;2.30;;;10.30;56.30;;;;;;6124177;23;20280;-54
2021/12/08 12:42:04;;;;;;;5.05;1.85;;;10.30;56.30;;;;;;6111359;23;20006;-53
2021/12/08 12:44:32;;;;;;;11.30;2.38;;;10.30;56.30;;;;;;6138188;23;20436;-54
2021/12/08 12:47:05;;;;;;;9.10;2.30;;;10.40;56.30;;;;;;6116227;23;20017;-54
2021/12/08 12:49:33;;;;;;;12.07;2.50;;;10.40;56.20;;;;;;6115645;23;20388;-53
2021/12/08 12:52:07;;;;;;;7.25;2.08;;;10.40;56.20;;;;;;6113647;23;20010;-53
2021/12/08 12:54:35;;;;;;;6.28;2.33;;;10.40;56.20;;;;;;6125552;23;20419;-54
2021/12/08 12:57:03;;;;;;;11.82;2.60;;;10.40;56.20;;;;;;6115723;23;19998;-53
2021/12/08 12:59:53;;;;;;;9.75;2.47;;;10.40;56.20;;;;;;6115124;23;20651;-53
2021/12/08 13:02:35;;;;;;;11.95;2.22;;;10.40;56.20;;;;;;6122485;23;20002;-54
2021/12/08 13:05:10;;;;;;;13.75;2.50;;;10.40;56.30;;;;;;6114006;23;20021;-52
2021/12/08 13:07:42;;;;;;;9.52;2.10;;;10.40;56.40;;;;;;6112929;23;20021;-56
2021/12/08 13:10:14;;;;;;;8.75;2.45;;;10.30;56.40;;;;;;6116033;23;20419;-54
2021/12/08 13:12:43;;;;;;;8.43;2.33;;;10.30;56.20;;;;;;6113351;23;20009;-54
2021/12/08 13:15:20;;;;;;;12.38;3.25;;;10.40;56.30;;;;;;6115017;23;20021;-57
2021/12/08 13:18:06;;;;;;;12.25;2.72;;;10.30;56.30;;;;;;6114516;23;20002;-56
2021/12/08 13:20:39;;;;;;;10.27;2.53;;;10.30;56.30;;;;;;6111684;23;20197;-56
2021/12/08 13:23:08;;;;;;;12.60;3.00;;;10.30;56.30;;;;;;6113604;23;20006;-53
2021/12/08 13:28:54;;;;;;;10.13;2.63;;;10.30;56.30;;;;;;6123734;23;20059;-53
2021/12/08 13:31:37;;;;;;;11.05;3.00;;;10.30;56.40;;;;;;6122458;23;20009;-53
2021/12/08 13:34:09;;;;;;;13.57;2.80;;;10.30;56.40;;;;;;6124344;23;20164;-52
2021/12/08 13:36:47;;;;;;;14.48;2.58;;;10.20;56.80;;;;;;6121639;23;20005;-54
2021/12/08 13:39:27;;;;;;;7.20;2.03;;;10.20;56.20;;;;;;6124356;23;20002;-52
2021/12/08 13:42:08;;;;;;;9.23;2.30;;;10.20;56.20;;;;;;6122037;23;20458;-54
2021/12/08 13:44:41;;;;;;;6.88;1.92;;;10.20;56.10;;;;;;6113212;23;20126;-53
2021/12/08 13:47:28;;;;;;;10.13;3.05;;;10.20;56.00;;;;;;6113265;23;20005;-55
2021/12/08 13:49:59;;;;;;;9.50;1.80;;;10.20;55.90;;;;;;6124174;23;20014;-55
2021/12/08 13:52:30;;;;;;;13.18;2.00;;;10.20;55.90;;;;;;6112745;23;20009;-52
2021/12/08 13:55:08;;;;;;;12.35;2.00;;;10.20;55.90;;;;;;6114128;23;20443;-55
2021/12/08 13:57:51;;;;;;;7.47;1.70;;;10.20;55.80;;;;;;6115432;23;19998;-53
2021/12/08 14:00:17;;;;;;;10.52;1.95;;;10.20;55.70;;;;;;6122638;23;19998;-53
2021/12/08 14:02:49;;;;;;;10.73;2.00;;;10.10;55.60;;;;;;6112481;23;20009;-56